Time;durP1;ratioP1;P1;durP2;ratioP2;P2;SDS_P1;SDS_P2;PMS_P1;PMS_P2;Temp;Humidity;BMP_temperature;BMP_pressure;BME280_temperature;BME280_humidity;BME280_pressure;Samples;Min_cycle;Max_cycle;Signal;HPM_P1;HPM_P2
2021/06/14 00:02:22;;;;;;;4.97;2.17;;;19.00;82.60;;;;;;5093270;28;20099;-67
2021/06/14 00:04:48;;;;;;;6.13;2.90;;;19.10;82.70;;;;;;5074373;28;20057;-67
2021/06/14 00:07:16;;;;;;;5.80;2.47;;;19.10;81.90;;;;;;5075084;28;20024;-67
2021/06/14 00:09:43;;;;;;;6.40;2.05;;;19.10;82.00;;;;;;5108124;28;20035;-67
2021/06/14 00:12:09;;;;;;;4.38;2.22;;;19.00;82.00;;;;;;5108739;28;20028;-67
2021/06/14 00:14:35;;;;;;;7.80;2.78;;;19.10;82.10;;;;;;5074319;28;20094;-67
2021/06/14 00:17:01;;;;;;;8.25;3.03;;;19.10;82.00;;;;;;5092999;28;20079;-67
2021/06/14 00:19:26;;;;;;;10.43;2.55;;;19.10;81.80;;;;;;5074758;28;20135;-67
2021/06/14 00:21:52;;;;;;;4.07;2.20;;;19.20;82.00;;;;;;5092033;28;20032;-67
2021/06/14 00:24:18;;;;;;;2.92;2.25;;;19.10;81.90;;;;;;5092790;28;20020;-67
2021/06/14 00:26:44;;;;;;;9.38;2.40;;;19.10;82.10;;;;;;5092289;28;20030;-67
2021/06/14 00:29:09;;;;;;;3.90;2.45;;;19.10;82.50;;;;;;5108381;28;20441;-67
2021/06/14 00:31:35;;;;;;;5.82;2.40;;;19.10;82.80;;;;;;5091861;28;20028;-67
2021/06/14 00:34:01;;;;;;;4.65;2.22;;;19.00;83.00;;;;;;5092355;28;20026;-67
2021/06/14 00:36:26;;;;;;;3.38;1.70;;;19.00;83.20;;;;;;5107979;28;20024;-67
2021/06/14 00:38:52;;;;;;;3.80;2.60;;;18.90;83.30;;;;;;5091993;28;20605;-67
2021/06/14 00:41:18;;;;;;;5.28;2.55;;;18.90;83.70;;;;;;5108062;28;20118;-67
2021/06/14 00:43:44;;;;;;;4.72;2.65;;;18.80;84.70;;;;;;5073527;28;20032;-67
2021/06/14 00:46:10;;;;;;;4.85;3.03;;;18.80;85.10;;;;;;5107950;28;20141;-67
2021/06/14 00:48:36;;;;;;;9.07;2.70;;;18.80;85.20;;;;;;5091735;28;20040;-68
2021/06/14 00:51:05;;;;;;;6.43;2.75;;;18.80;85.50;;;;;;5092212;28;20024;-67
2021/06/14 00:53:40;;;;;;;5.63;2.60;;;18.50;85.90;;;;;;5107726;28;20020;-67
2021/06/14 00:56:11;;;;;;;5.50;2.88;;;18.50;88.50;;;;;;5091935;28;20588;-68
2021/06/14 00:58:38;;;;;;;4.72;2.75;;;18.50;89.30;;;;;;5073231;28;20038;-67
2021/06/14 01:01:07;;;;;;;6.75;2.85;;;18.40;89.90;;;;;;5092052;28;20047;-67
2021/06/14 01:03:33;;;;;;;5.13;2.67;;;18.40;90.20;;;;;;5107524;28;20071;-67
2021/06/14 01:06:02;;;;;;;5.43;2.45;;;18.40;90.20;;;;;;5091911;28;20024;-67
2021/06/14 01:08:30;;;;;;;3.88;2.22;;;18.40;90.00;;;;;;5091933;28;20024;-67
2021/06/14 01:10:58;;;;;;;7.18;1.98;;;18.40;89.80;;;;;;5091058;28;20030;-67
2021/06/14 01:13:47;;;;;;;5.43;2.92;;;18.50;89.60;;;;;;5107546;28;20135;-67
2021/06/14 01:16:25;;;;;;;7.68;3.20;;;18.40;89.40;;;;;;5107035;28;20028;-67
2021/06/14 01:19:21;;;;;;;5.65;2.25;;;18.40;89.80;;;;;;5089370;28;20394;-68
2021/06/14 01:22:24;;;;;;;3.65;2.70;;;18.40;89.40;;;;;;5061652;28;20025;-67
2021/06/14 01:25:21;;;;;;;4.47;2.15;;;18.40;89.50;;;;;;5052901;28;20041;-68
2021/06/14 01:27:53;;;;;;;4.70;2.70;;;18.50;89.80;;;;;;5052827;28;20335;-68
2021/06/14 01:30:22;;;;;;;4.60;2.60;;;18.40;89.80;;;;;;5053283;28;20032;-67
2021/06/14 01:32:49;;;;;;;4.93;2.20;;;18.40;89.70;;;;;;5052655;28;20139;-67
2021/06/14 01:35:19;;;;;;;5.47;2.55;;;18.40;89.70;;;;;;5053091;28;20028;-67
2021/06/14 01:37:48;;;;;;;5.75;3.83;;;18.50;89.50;;;;;;5052614;28;20033;-67
2021/06/14 01:40:17;;;;;;;5.57;2.22;;;18.40;89.80;;;;;;5071247;28;20029;-68
2021/06/14 01:42:44;;;;;;;8.13;2.70;;;18.40;89.50;;;;;;5052533;28;20067;-68
2021/06/14 01:45:10;;;;;;;4.93;2.28;;;18.40;89.00;;;;;;5070930;28;20089;-67
2021/06/14 01:47:37;;;;;;;5.25;2.25;;;18.40;89.00;;;;;;5052636;28;20078;-67
2021/06/14 01:50:04;;;;;;;4.53;2.30;;;18.40;89.20;;;;;;5053247;28;20025;-67
2021/06/14 01:52:30;;;;;;;7.43;2.50;;;18.40;89.40;;;;;;5070846;28;20029;-67
2021/06/14 01:54:57;;;;;;;5.45;2.25;;;18.40;89.40;;;;;;5070411;28;20040;-67
2021/06/14 01:57:24;;;;;;;4.50;2.10;;;18.30;89.40;;;;;;5052617;28;20121;-67
2021/06/14 01:59:52;;;;;;;4.70;2.42;;;18.30;89.30;;;;;;5070062;28;20082;-67
2021/06/14 02:02:19;;;;;;;6.07;2.13;;;18.30;89.00;;;;;;5070442;28;20021;-68
2021/06/14 02:04:47;;;;;;;4.15;2.30;;;18.30;89.10;;;;;;5052085;28;20079;-68
2021/06/14 02:07:13;;;;;;;4.53;2.50;;;18.10;89.60;;;;;;5052712;28;20033;-67
2021/06/14 02:09:40;;;;;;;5.30;2.83;;;18.10;89.50;;;;;;5070461;28;20031;-69
2021/06/14 02:12:10;;;;;;;4.30;2.05;;;18.10;89.60;;;;;;5070749;28;20024;-67
2021/06/14 02:14:40;;;;;;;3.20;2.33;;;18.20;89.40;;;;;;5070803;28;20133;-67
2021/06/14 02:17:08;;;;;;;9.35;2.30;;;18.10;90.10;;;;;;5052317;28;20084;-67
2021/06/14 02:19:38;;;;;;;5.25;2.47;;;18.00;90.20;;;;;;5052391;28;20062;-67
2021/06/14 02:22:05;;;;;;;5.15;2.20;;;17.90;90.50;;;;;;5070558;28;20081;-67
2021/06/14 02:24:30;;;;;;;4.65;1.95;;;17.90;88.60;;;;;;5052517;28;20433;-67
2021/06/14 02:26:56;;;;;;;7.13;1.75;;;17.80;83.80;;;;;;5051880;28;20028;-67
2021/06/14 02:29:22;;;;;;;6.00;2.45;;;17.70;82.30;;;;;;5070362;28;20036;-67
2021/06/14 02:31:48;;;;;;;6.00;2.33;;;17.70;82.40;;;;;;5069930;28;20025;-66
2021/06/14 02:34:14;;;;;;;4.30;2.13;;;17.70;82.30;;;;;;5052266;28;20117;-67
2021/06/14 02:36:41;;;;;;;3.72;2.05;;;17.70;82.50;;;;;;5069763;28;20067;-75
2021/06/14 02:39:14;;;;;;;3.55;2.13;;;17.50;82.50;;;;;;5070121;28;20542;-67
2021/06/14 02:41:41;;;;;;;5.18;2.83;;;17.60;82.50;;;;;;5070155;28;20118;-67
2021/06/14 02:44:07;;;;;;;4.25;2.08;;;17.60;82.30;;;;;;5070356;28;20386;-67
2021/06/14 02:46:40;;;;;;;5.00;2.20;;;17.70;82.50;;;;;;5052333;28;20581;-67
2021/06/14 02:49:07;;;;;;;4.43;2.10;;;17.60;82.90;;;;;;5052442;28;20031;-66
2021/06/14 02:51:35;;;;;;;4.05;2.28;;;17.60;84.00;;;;;;5052302;28;20028;-67
2021/06/14 02:54:04;;;;;;;4.05;2.05;;;17.70;84.70;;;;;;5051649;28;20398;-66
2021/06/14 02:56:40;;;;;;;5.75;2.15;;;17.60;85.50;;;;;;5085883;28;20025;-69
2021/06/14 02:59:10;;;;;;;5.93;2.28;;;17.60;86.80;;;;;;5070419;28;20110;-67
2021/06/14 03:01:36;;;;;;;4.53;2.17;;;17.60;86.60;;;;;;5073990;28;20058;-66
2021/06/14 03:04:04;;;;;;;3.75;1.95;;;17.50;87.30;;;;;;5055455;28;20024;-65
2021/06/14 03:06:30;;;;;;;4.50;2.10;;;17.40;87.40;;;;;;5056073;28;20043;-65
2021/06/14 03:08:57;;;;;;;4.43;2.40;;;17.40;88.20;;;;;;5073018;28;20024;-66
2021/06/14 03:11:28;;;;;;;4.75;2.22;;;17.50;87.20;;;;;;5073847;28;20025;-66
2021/06/14 03:13:54;;;;;;;6.82;2.63;;;17.50;86.90;;;;;;5072929;28;20033;-65
2021/06/14 03:16:22;;;;;;;6.32;3.00;;;17.40;86.90;;;;;;5055527;28;20470;-66
2021/06/14 03:18:50;;;;;;;4.75;2.10;;;17.40;86.50;;;;;;5072404;28;20051;-66
2021/06/14 03:21:17;;;;;;;4.00;2.50;;;17.50;86.00;;;;;;5073412;28;20032;-66
2021/06/14 03:23:43;;;;;;;5.18;2.40;;;17.30;84.90;;;;;;5072905;28;20050;-79
2021/06/14 03:26:14;;;;;;;16.30;3.85;;;17.30;84.70;;;;;;5073064;28;20027;-66
2021/06/14 03:28:44;;;;;;;8.43;2.28;;;17.20;84.70;;;;;;5055397;28;20451;-66
2021/06/14 03:31:11;;;;;;;4.03;2.33;;;17.30;84.40;;;;;;5073621;28;20039;-66
2021/06/14 03:33:40;;;;;;;3.28;2.97;;;17.30;84.60;;;;;;5055274;28;20029;-65
2021/06/14 03:36:06;;;;;;;4.45;2.65;;;17.10;85.30;;;;;;5072461;28;20465;-65
2021/06/14 03:38:32;;;;;;;3.78;2.30;;;17.10;85.30;;;;;;5055155;28;20033;-65
2021/06/14 03:40:58;;;;;;;8.57;2.25;;;17.20;85.30;;;;;;5072309;28;20090;-65
2021/06/14 03:43:23;;;;;;;6.07;2.47;;;17.30;85.10;;;;;;5054986;28;20086;-65
2021/06/14 03:45:49;;;;;;;6.38;2.72;;;17.40;85.20;;;;;;5054430;28;20077;-66
2021/06/14 03:48:15;;;;;;;5.53;2.97;;;17.30;85.20;;;;;;5073119;28;20048;-65
2021/06/14 03:50:40;;;;;;;5.82;2.20;;;17.30;85.60;;;;;;5073008;28;20034;-65
2021/06/14 03:53:07;;;;;;;6.63;3.17;;;17.30;85.80;;;;;;5072294;28;20112;-65
2021/06/14 03:55:32;;;;;;;4.75;2.75;;;17.10;86.20;;;;;;5072881;28;20021;-66
2021/06/14 03:57:58;;;;;;;5.03;2.53;;;17.10;86.30;;;;;;5071900;28;20374;-66
2021/06/14 04:00:23;;;;;;;6.57;3.28;;;17.20;86.20;;;;;;5072675;28;20032;-66
2021/06/14 04:02:49;;;;;;;12.75;3.53;;;17.30;86.20;;;;;;5054062;28;20378;-66
2021/06/14 04:05:15;;;;;;;11.73;2.53;;;17.20;86.40;;;;;;5072746;28;20339;-66
2021/06/14 04:07:41;;;;;;;7.85;2.60;;;17.20;86.40;;;;;;5072268;28;20085;-66
2021/06/14 04:10:07;;;;;;;10.20;2.83;;;17.30;86.30;;;;;;5072339;28;20035;-66
2021/06/14 04:12:34;;;;;;;6.57;2.95;;;17.30;86.30;;;;;;5072086;28;20024;-66
2021/06/14 04:14:59;;;;;;;5.45;3.08;;;17.30;86.30;;;;;;5053927;28;20036;-66
2021/06/14 04:17:28;;;;;;;4.32;2.67;;;17.40;86.30;;;;;;5071964;28;20052;-65
2021/06/14 04:19:53;;;;;;;172.68;20.33;;;17.30;86.00;;;;;;5071745;28;20036;-66
2021/06/14 04:22:19;;;;;;;81.00;10.75;;;17.30;86.00;;;;;;5072019;28;20032;-66
2021/06/14 04:24:45;;;;;;;36.05;6.68;;;17.40;85.90;;;;;;5054379;28;20120;-65
2021/06/14 04:27:10;;;;;;;94.88;12.38;;;17.40;86.00;;;;;;5053474;28;20388;-66
2021/06/14 04:29:36;;;;;;;56.78;8.85;;;17.50;86.00;;;;;;5072257;28;20074;-66
2021/06/14 04:32:02;;;;;;;23.25;5.68;;;17.40;85.90;;;;;;5071696;28;20082;-66
2021/06/14 04:34:28;;;;;;;48.58;6.22;;;17.50;85.70;;;;;;5053990;28;20086;-65
2021/06/14 04:36:54;;;;;;;107.45;12.15;;;17.50;85.20;;;;;;5053483;28;20031;-65
2021/06/14 04:39:20;;;;;;;143.77;18.48;;;17.60;84.90;;;;;;5053985;28;20138;-66
2021/06/14 04:41:46;;;;;;;20.67;5.63;;;17.60;85.30;;;;;;5087391;28;20072;-65
2021/06/14 04:44:11;;;;;;;45.55;8.43;;;17.50;85.80;;;;;;5052880;28;20072;-65
2021/06/14 04:46:37;;;;;;;24.05;4.22;;;17.40;86.30;;;;;;5053726;28;20024;-66
2021/06/14 04:49:03;;;;;;;11.30;3.83;;;17.40;86.60;;;;;;5052982;28;20028;-66
2021/06/14 04:51:29;;;;;;;13.02;4.30;;;17.50;86.70;;;;;;5053968;28;20068;-66
2021/06/14 04:53:55;;;;;;;12.15;3.28;;;17.60;86.50;;;;;;5052983;28;20031;-66
2021/06/14 04:56:20;;;;;;;12.95;3.08;;;17.70;86.40;;;;;;5071760;28;20454;-65
2021/06/14 04:58:46;;;;;;;6.47;2.70;;;17.80;86.90;;;;;;5071270;28;20454;-66
2021/06/14 05:01:12;;;;;;;6.85;2.70;;;17.70;85.60;;;;;;5070778;28;20116;-66
2021/06/14 05:03:37;;;;;;;8.50;2.88;;;17.70;85.20;;;;;;5071514;28;20086;-65
2021/06/14 05:06:04;;;;;;;11.55;3.88;;;17.80;85.60;;;;;;5070469;28;20460;-65
2021/06/14 05:08:29;;;;;;;11.90;3.45;;;17.90;85.30;;;;;;5071403;28;20035;-67
2021/06/14 05:10:55;;;;;;;10.07;3.45;;;17.90;84.90;;;;;;5070793;28;20424;-67
2021/06/14 05:13:21;;;;;;;8.02;3.13;;;18.00;85.00;;;;;;5086858;28;20031;-67
2021/06/14 05:15:46;;;;;;;5.40;2.47;;;18.00;84.90;;;;;;5053160;28;20028;-67
2021/06/14 05:18:12;;;;;;;5.18;2.65;;;18.00;84.80;;;;;;5069835;28;20056;-66
2021/06/14 05:20:38;;;;;;;5.07;2.00;;;18.00;84.80;;;;;;5070899;28;20048;-65
2021/06/14 05:23:04;;;;;;;5.75;2.58;;;18.00;84.80;;;;;;5069678;28;20032;-66
2021/06/14 05:25:31;;;;;;;6.70;3.03;;;18.10;84.60;;;;;;5052726;28;20041;-66
2021/06/14 05:27:57;;;;;;;13.00;4.20;;;18.10;85.10;;;;;;5054563;28;20033;-66
2021/06/14 05:30:23;;;;;;;8.95;3.47;;;18.20;84.40;;;;;;5072560;28;20533;-65
2021/06/14 05:32:49;;;;;;;15.23;3.72;;;18.20;84.90;;;;;;5072546;28;20426;-65
2021/06/14 05:35:15;;;;;;;14.48;3.13;;;18.30;84.00;;;;;;5106025;28;20020;-65
2021/06/14 05:37:41;;;;;;;12.60;2.42;;;18.30;84.40;;;;;;5106859;28;20062;-65
2021/06/14 05:40:08;;;;;;;9.30;2.58;;;18.40;83.70;;;;;;5072082;28;20036;-66
2021/06/14 05:42:35;;;;;;;11.75;3.38;;;18.50;83.40;;;;;;5090860;28;20152;-67
2021/06/14 05:45:02;;;;;;;24.70;6.38;;;18.50;85.00;;;;;;5071811;28;20039;-68
2021/06/14 05:47:28;;;;;;;19.55;5.60;;;18.70;90.90;;;;;;5090760;28;20081;-70
2021/06/14 05:49:54;;;;;;;13.57;3.22;;;18.90;90.80;;;;;;5063768;28;20040;-74
2021/06/14 05:52:19;;;;;;;8.15;2.80;;;18.80;90.20;;;;;;5085861;28;20025;-72
2021/06/14 05:54:45;;;;;;;7.53;2.50;;;19.00;87.70;;;;;;5085779;28;20031;-71
2021/06/14 05:57:11;;;;;;;6.75;2.78;;;19.20;86.50;;;;;;5051781;28;20029;-71
2021/06/14 05:59:38;;;;;;;7.75;2.60;;;19.50;87.00;;;;;;5070203;28;20120;-70
2021/06/14 06:02:05;;;;;;;7.43;3.33;;;19.40;85.60;;;;;;5069901;28;20029;-72
2021/06/14 06:04:30;;;;;;;6.38;2.22;;;19.50;86.60;;;;;;5070284;28;20039;-67
2021/06/14 06:06:56;;;;;;;5.63;2.00;;;19.60;83.80;;;;;;5102823;28;20024;-69
2021/06/14 06:09:22;;;;;;;11.52;2.10;;;20.30;89.30;;;;;;5105076;28;20410;-68
2021/06/14 06:11:48;;;;;;;5.60;1.98;;;20.90;87.10;;;;;;5088846;28;20032;-70
2021/06/14 06:14:13;;;;;;;4.00;1.90;;;20.60;80.30;;;;;;5088905;28;20028;-72
2021/06/14 06:16:39;;;;;;;3.88;2.35;;;20.30;79.40;;;;;;5071414;28;20043;-73
2021/06/14 06:19:05;;;;;;;13.07;3.35;;;20.10;81.00;;;;;;5088693;28;20043;-72
2021/06/14 06:21:31;;;;;;;7.07;2.60;;;20.10;82.00;;;;;;5071125;28;20020;-71
2021/06/14 06:23:56;;;;;;;3.58;2.10;;;20.10;83.10;;;;;;5088647;28;20035;-71
2021/06/14 06:26:22;;;;;;;2.92;1.92;;;20.10;82.50;;;;;;5104574;28;20421;-70
2021/06/14 06:28:48;;;;;;;4.53;2.10;;;20.20;79.40;;;;;;5089625;28;20028;-70
2021/06/14 06:31:14;;;;;;;4.03;1.73;;;20.10;80.90;;;;;;5070580;28;20440;-70
2021/06/14 06:33:41;;;;;;;7.80;2.55;;;20.00;78.50;;;;;;5071431;28;20380;-70
2021/06/14 06:36:07;;;;;;;7.82;2.85;;;20.00;77.90;;;;;;5092668;28;20027;-71
2021/06/14 06:38:33;;;;;;;5.00;2.42;;;20.10;80.60;;;;;;5075028;28;20036;-70
2021/06/14 06:40:59;;;;;;;4.35;2.55;;;20.00;80.30;;;;;;5074402;28;20124;-71
2021/06/14 06:43:25;;;;;;;5.82;2.00;;;19.90;77.90;;;;;;5074825;28;20038;-71
2021/06/14 06:45:51;;;;;;;5.65;2.15;;;20.00;78.30;;;;;;5074987;28;20054;-71
2021/06/14 06:48:17;;;;;;;5.65;2.35;;;20.30;82.60;;;;;;5092917;28;20043;-71
2021/06/14 06:50:44;;;;;;;9.05;2.67;;;20.50;80.40;;;;;;5093219;28;20414;-71
2021/06/14 06:53:09;;;;;;;4.78;2.55;;;20.40;78.40;;;;;;5092623;28;20031;-70
2021/06/14 06:55:35;;;;;;;8.63;3.67;;;20.40;77.20;;;;;;5074180;28;20020;-68
2021/06/14 06:58:03;;;;;;;8.30;2.42;;;20.30;77.70;;;;;;5073791;28;20070;-70
2021/06/14 07:00:30;;;;;;;5.00;2.65;;;20.50;78.20;;;;;;5073350;28;20027;-71
2021/06/14 07:02:56;;;;;;;8.18;2.78;;;20.50;79.10;;;;;;5072497;28;20032;-77
2021/06/14 07:05:21;;;;;;;4.93;2.50;;;20.60;79.60;;;;;;5090998;28;20035;-72
2021/06/14 07:07:47;;;;;;;7.22;2.45;;;20.60;79.00;;;;;;5072941;28;20032;-70
2021/06/14 07:10:14;;;;;;;9.38;3.13;;;20.60;79.40;;;;;;5091172;28;20076;-67
2021/06/14 07:12:40;;;;;;;8.00;2.55;;;20.60;76.50;;;;;;5073820;28;20131;-68
2021/06/14 07:15:13;;;;;;;7.53;2.95;;;20.60;76.80;;;;;;5071646;28;20036;-70
2021/06/14 07:17:42;;;;;;;7.80;2.80;;;20.60;76.90;;;;;;5088666;28;20504;-66
2021/06/14 07:20:09;;;;;;;4.55;2.10;;;20.40;77.60;;;;;;5072579;28;21332;-69
2021/06/14 07:22:35;;;;;;;9.90;3.45;;;20.30;80.30;;;;;;5081975;28;20061;-75
2021/06/14 07:25:01;;;;;;;8.45;2.05;;;20.10;76.40;;;;;;5109974;28;20726;-69
2021/06/14 07:27:27;;;;;;;6.40;2.50;;;20.20;77.50;;;;;;5078333;28;20035;-68
2021/06/14 07:29:53;;;;;;;6.47;1.90;;;20.50;78.60;;;;;;5073284;28;20448;-52
2021/06/14 07:32:18;;;;;;;6.55;2.63;;;21.10;77.50;;;;;;5091589;28;20063;-51
2021/06/14 07:34:44;;;;;;;4.35;2.25;;;20.70;74.50;;;;;;5073207;28;20503;-51
2021/06/14 07:37:10;;;;;;;5.28;2.83;;;20.60;74.20;;;;;;5091409;28;20024;-51
2021/06/14 07:39:37;;;;;;;9.48;2.58;;;20.90;75.90;;;;;;5073734;28;20040;-50
2021/06/14 07:42:04;;;;;;;9.07;2.67;;;21.30;77.50;;;;;;5091286;28;20611;-51
2021/06/14 07:44:30;;;;;;;6.70;2.20;;;21.80;76.30;;;;;;5092007;28;20491;-57
2021/06/14 07:46:56;;;;;;;7.25;2.65;;;22.10;80.80;;;;;;5071210;28;20481;-50
2021/06/14 07:49:23;;;;;;;6.32;2.60;;;21.80;81.80;;;;;;5090305;28;20491;-52
2021/06/14 07:51:49;;;;;;;7.38;2.65;;;21.90;79.30;;;;;;5088878;28;20028;-51
2021/06/14 07:54:14;;;;;;;8.95;2.50;;;21.80;72.80;;;;;;5091077;28;20024;-50
2021/06/14 07:56:44;;;;;;;4.88;1.90;;;21.60;73.70;;;;;;5072888;28;20055;-53
2021/06/14 07:59:11;;;;;;;8.15;2.20;;;22.00;74.50;;;;;;5089132;28;20027;-51
2021/06/14 08:01:36;;;;;;;4.78;2.33;;;22.10;74.20;;;;;;5090542;28;20032;-52
2021/06/14 08:04:02;;;;;;;8.32;2.80;;;21.70;72.90;;;;;;5070698;28;20111;-50
2021/06/14 08:06:28;;;;;;;8.50;1.92;;;21.90;73.90;;;;;;5072446;28;20115;-51
2021/06/14 08:08:54;;;;;;;6.70;2.08;;;22.20;73.00;;;;;;5091502;28;20040;-74
2021/06/14 08:11:19;;;;;;;9.20;2.33;;;22.30;71.60;;;;;;5072739;28;20036;-73
2021/06/14 08:13:46;;;;;;;5.97;2.17;;;21.70;73.10;;;;;;5072856;28;20032;-72
2021/06/14 08:16:12;;;;;;;8.45;2.72;;;22.10;75.30;;;;;;5090468;28;20168;-71
2021/06/14 08:26:35;;;;;;;4.22;1.67;;;22.90;77.50;;;;;;5070837;28;20093;-69
2021/06/14 08:29:01;;;;;;;3.97;2.05;;;23.00;74.40;;;;;;5070152;28;20040;-70
2021/06/14 08:31:29;;;;;;;4.95;1.90;;;22.80;74.00;;;;;;5072391;28;20034;-72
2021/06/14 08:33:55;;;;;;;3.92;1.85;;;23.00;73.40;;;;;;5090268;28;20046;-71
2021/06/14 08:36:21;;;;;;;4.25;1.92;;;23.20;73.50;;;;;;5056343;28;20033;-74
2021/06/14 08:38:47;;;;;;;6.45;2.40;;;23.10;72.30;;;;;;5066045;28;20040;-72
2021/06/14 08:41:19;;;;;;;6.85;2.53;;;23.20;71.90;;;;;;5091430;28;20565;-72
2021/06/14 08:43:48;;;;;;;5.60;1.73;;;23.50;70.70;;;;;;5068616;28;20032;-67
2021/06/14 08:46:14;;;;;;;6.35;2.22;;;23.70;74.10;;;;;;5053687;28;20157;-76
2021/06/14 08:48:41;;;;;;;6.63;2.00;;;23.80;73.00;;;;;;5071586;28;20445;-73
2021/06/14 08:51:09;;;;;;;4.68;2.20;;;24.10;69.10;;;;;;5071301;28;20051;-76
2021/06/14 08:53:36;;;;;;;34.20;6.80;;;23.80;67.00;;;;;;5088187;28;20330;-74
2021/06/14 08:56:03;;;;;;;19.23;4.68;;;23.90;80.80;;;;;;5077858;28;20072;-78
2021/06/14 08:58:32;;;;;;;5.50;2.58;;;24.10;75.80;;;;;;5080110;28;20035;-73
2021/06/14 09:01:02;;;;;;;6.18;2.80;;;24.10;68.90;;;;;;5085872;28;20027;-77
2021/06/14 09:03:29;;;;;;;4.35;1.80;;;24.10;71.00;;;;;;5075483;28;20028;-74
2021/06/14 09:05:56;;;;;;;8.00;2.47;;;24.10;66.90;;;;;;5083513;28;20035;-75
2021/06/14 09:08:24;;;;;;;3.75;1.58;;;24.10;73.00;;;;;;5070967;28;20057;-73
2021/06/14 09:10:52;;;;;;;5.72;1.98;;;24.10;67.80;;;;;;5089978;28;20036;-74
2021/06/14 09:13:21;;;;;;;3.92;1.88;;;24.20;66.60;;;;;;5070353;28;20035;-75
2021/06/14 09:16:06;;;;;;;5.72;1.88;;;24.50;66.50;;;;;;5089340;28;20024;-74
2021/06/14 09:18:34;;;;;;;4.38;1.88;;;24.60;66.50;;;;;;5089677;28;20072;-74
2021/06/14 09:21:04;;;;;;;8.15;3.08;;;24.90;65.30;;;;;;5089525;28;20119;-75
2021/06/14 09:23:50;;;;;;;7.38;2.00;;;24.80;64.20;;;;;;5090385;28;20090;-73
2021/06/14 09:26:26;;;;;;;2.92;2.08;;;24.60;66.80;;;;;;5071258;28;20039;-77
2021/06/14 09:29:18;;;;;;;5.63;2.13;;;24.60;65.30;;;;;;5105703;28;20028;-75
2021/06/14 09:32:00;;;;;;;6.05;2.22;;;24.80;64.40;;;;;;5105328;28;20097;-76
2021/06/14 09:34:42;;;;;;;7.18;2.70;;;24.80;63.90;;;;;;5071377;28;20077;-74
2021/06/14 09:37:12;;;;;;;8.25;1.88;;;24.90;65.90;;;;;;5071148;28;20028;-75
2021/06/14 09:39:39;;;;;;;8.95;3.03;;;25.20;67.00;;;;;;5089287;28;20060;-76
2021/06/14 09:42:21;;;;;;;9.45;2.47;;;25.40;64.30;;;;;;5070647;28;20428;-76
2021/06/14 09:44:49;;;;;;;6.07;2.38;;;25.60;63.90;;;;;;5071173;28;20028;-76
2021/06/14 09:47:16;;;;;;;5.03;2.00;;;25.90;63.40;;;;;;5070422;28;20089;-75
2021/06/14 09:49:57;;;;;;;9.18;2.03;;;25.90;62.60;;;;;;5088804;28;20111;-73
2021/06/14 09:52:24;;;;;;;9.15;2.15;;;25.50;62.10;;;;;;5070651;28;20407;-74
2021/06/14 09:54:50;;;;;;;6.45;1.85;;;25.50;61.60;;;;;;5054477;28;20122;-76
2021/06/14 09:57:28;;;;;;;5.03;2.13;;;25.40;63.10;;;;;;5070225;28;20220;-76
2021/06/14 10:00:12;;;;;;;7.43;2.30;;;25.60;62.00;;;;;;5070680;28;20040;-79
2021/06/14 10:02:38;;;;;;;6.75;2.38;;;25.70;63.60;;;;;;5088508;28;20077;-72
2021/06/14 10:05:19;;;;;;;7.28;1.95;;;26.20;63.10;;;;;;5070066;28;20020;-74
2021/06/14 10:07:47;;;;;;;5.88;2.10;;;26.70;62.80;;;;;;5070787;28;20020;-73
2021/06/14 10:10:25;;;;;;;7.88;2.35;;;26.70;61.70;;;;;;5069593;28;20023;-76
2021/06/14 10:12:54;;;;;;;9.57;2.30;;;26.80;61.80;;;;;;5088734;28;20043;-74
2021/06/14 10:15:38;;;;;;;3.47;1.80;;;26.50;61.40;;;;;;5088985;28;20027;-74
2021/06/14 10:18:08;;;;;;;6.85;2.30;;;26.60;61.40;;;;;;5087711;28;20063;-74
2021/06/14 10:20:39;;;;;;;5.07;1.70;;;26.90;61.80;;;;;;5053597;28;20052;-73
2021/06/14 10:23:05;;;;;;;5.60;2.05;;;27.20;61.60;;;;;;5069662;28;20032;-73
2021/06/14 10:25:32;;;;;;;5.15;1.98;;;27.50;61.10;;;;;;5089090;28;20399;-73
2021/06/14 10:27:58;;;;;;;4.65;1.92;;;27.80;60.50;;;;;;5070093;28;20030;-72
2021/06/14 10:30:25;;;;;;;8.25;2.33;;;27.60;58.70;;;;;;5089113;28;20068;-75
2021/06/14 10:32:51;;;;;;;5.13;1.98;;;27.30;58.80;;;;;;5070804;28;20027;-73
2021/06/14 10:35:19;;;;;;;5.65;1.80;;;27.50;60.00;;;;;;5088052;28;20024;-73
2021/06/14 10:37:50;;;;;;;5.90;1.85;;;27.60;59.50;;;;;;5070283;28;20027;-73
2021/06/14 10:40:20;;;;;;;5.75;2.05;;;27.40;59.10;;;;;;5069904;28;20165;-74
2021/06/14 10:42:47;;;;;;;3.80;2.13;;;27.50;59.20;;;;;;5070298;28;20024;-75
2021/06/14 10:45:18;;;;;;;5.43;1.95;;;27.70;58.40;;;;;;5069748;28;20035;-73
2021/06/14 10:47:46;;;;;;;6.88;2.10;;;27.90;59.00;;;;;;5070298;28;20192;-74
2021/06/14 10:50:15;;;;;;;8.10;2.03;;;27.80;58.00;;;;;;5087603;28;20469;-75
2021/06/14 10:52:44;;;;;;;6.10;2.58;;;27.90;58.80;;;;;;5070553;28;20043;-75
2021/06/14 10:55:12;;;;;;;5.45;2.00;;;28.00;58.10;;;;;;5088128;28;20042;-73
2021/06/14 10:57:38;;;;;;;3.90;1.75;;;27.60;57.50;;;;;;5104083;28;20306;-74
2021/06/14 11:00:20;;;;;;;5.38;1.95;;;27.00;58.10;;;;;;5068907;28;20031;-72
2021/06/14 11:03:00;;;;;;;13.95;2.10;;;27.50;60.40;;;;;;5069976;28;20028;-74
2021/06/14 11:05:39;;;;;;;3.87;1.90;;;28.00;59.30;;;;;;5069936;28;20088;-72
2021/06/14 11:08:12;;;;;;;4.97;1.88;;;28.20;57.90;;;;;;5102899;28;20031;-73
2021/06/14 11:10:38;;;;;;;4.05;2.03;;;27.60;57.20;;;;;;5070138;28;20048;-73
2021/06/14 11:13:12;;;;;;;8.10;1.65;;;27.70;58.50;;;;;;5069150;28;20051;-75
2021/06/14 11:15:43;;;;;;;4.47;1.45;;;28.00;57.50;;;;;;5088038;28;20016;-73
2021/06/14 11:18:30;;;;;;;6.63;1.95;;;28.20;57.40;;;;;;5068922;28;20180;-74
2021/06/14 11:21:19;;;;;;;5.03;1.58;;;28.40;57.20;;;;;;5069528;28;20046;-74
2021/06/14 11:23:48;;;;;;;3.25;1.70;;;28.10;56.00;;;;;;5092218;28;20036;-77
2021/06/14 11:26:28;;;;;;;7.50;1.52;;;27.90;57.00;;;;;;5072380;28;20027;-77
2021/06/14 11:28:54;;;;;;;6.80;2.08;;;27.90;58.20;;;;;;5092165;28;20031;-78
2021/06/14 11:31:29;;;;;;;7.40;2.28;;;28.00;57.10;;;;;;5092428;28;20132;-77
2021/06/14 11:34:02;;;;;;;6.15;2.70;;;28.20;57.50;;;;;;5092808;28;20357;-87
2021/06/14 11:36:34;;;;;;;10.45;3.47;;;28.30;58.20;;;;;;5092911;28;20031;-77
2021/06/14 11:39:15;;;;;;;6.90;2.75;;;28.90;59.10;;;;;;5057562;28;20032;-74
2021/06/14 11:41:41;;;;;;;3.45;1.90;;;29.00;55.50;;;;;;5091189;28;20419;-73
2021/06/14 11:44:28;;;;;;;4.95;1.70;;;28.40;54.30;;;;;;5092047;28;20048;-75
2021/06/14 11:47:27;;;;;;;7.72;2.10;;;28.20;55.10;;;;;;5091561;28;20039;-73
2021/06/14 11:49:59;;;;;;;5.38;1.60;;;28.00;55.30;;;;;;5070117;28;20064;-75
2021/06/14 11:52:32;;;;;;;5.35;2.05;;;28.00;54.20;;;;;;5073514;28;20024;-74
2021/06/14 11:55:01;;;;;;;1.83;1.40;;;28.30;54.50;;;;;;5091146;28;20043;-73
2021/06/14 11:57:46;;;;;;;3.72;1.50;;;28.20;54.10;;;;;;5073335;28;20020;-72
2021/06/14 12:00:27;;;;;;;5.35;2.10;;;28.10;54.60;;;;;;5090712;28;20314;-72
2021/06/14 12:02:53;;;;;;;;;;;28.40;54.70;;;;;;5091899;28;20020;-72
2021/06/14 12:05:30;;;;;;;3.75;1.50;;;28.90;54.80;;;;;;5088114;28;19908;-73
2021/06/14 12:07:56;;;;;;;5.00;1.92;;;29.00;54.80;;;;;;5091718;28;20042;-81
2021/06/14 12:10:23;;;;;;;3.20;1.30;;;29.40;54.50;;;;;;5107270;28;20414;-73
2021/06/14 12:13:01;;;;;;;3.55;1.70;;;29.10;54.60;;;;;;5072903;28;20228;-72
2021/06/14 12:15:27;;;;;;;4.53;1.40;;;29.00;53.70;;;;;;5090846;28;20016;-75
2021/06/14 12:17:53;;;;;;;3.08;1.52;;;28.50;53.70;;;;;;5090695;28;20101;-73
2021/06/14 12:20:25;;;;;;;3.50;1.38;;;28.40;54.20;;;;;;5072035;28;20024;-74
2021/06/14 12:22:59;;;;;;;6.13;2.28;;;28.40;53.50;;;;;;5072991;28;20569;-77
2021/06/14 12:25:25;;;;;;;4.45;1.80;;;28.00;53.90;;;;;;5090566;28;20016;-75
2021/06/14 12:28:02;;;;;;;4.57;1.83;;;28.30;54.60;;;;;;5072726;28;20054;-73
2021/06/14 12:30:29;;;;;;;5.50;1.90;;;28.50;54.50;;;;;;5090938;28;20073;-73
2021/06/14 12:32:55;;;;;;;12.32;2.70;;;28.70;54.10;;;;;;5072035;28;20445;-73
2021/06/14 12:35:22;;;;;;;3.80;1.67;;;28.90;53.70;;;;;;5090862;28;20024;-73
2021/06/14 12:37:51;;;;;;;3.72;1.30;;;28.80;53.10;;;;;;5072124;28;20377;-73
2021/06/14 12:40:26;;;;;;;2.40;1.27;;;28.80;53.20;;;;;;5105693;28;20473;-74
2021/06/14 12:43:00;;;;;;;6.45;2.00;;;28.80;53.60;;;;;;5106140;28;20027;-73
2021/06/14 12:45:27;;;;;;;2.95;1.65;;;28.90;53.90;;;;;;5072762;28;20448;-73
2021/06/14 12:47:57;;;;;;;5.70;2.13;;;28.80;53.30;;;;;;5072520;28;20115;-72
2021/06/14 12:50:25;;;;;;;3.28;1.50;;;28.90;53.80;;;;;;5072466;28;20031;-75
2021/06/14 12:52:52;;;;;;;6.28;1.58;;;28.90;53.20;;;;;;5090499;28;20064;-74
2021/06/14 12:55:23;;;;;;;2.38;1.10;;;28.90;53.50;;;;;;5089730;28;20085;-73
2021/06/14 12:57:50;;;;;;;6.03;1.30;;;28.70;53.60;;;;;;5071721;28;20043;-76
2021/06/14 13:00:26;;;;;;;6.20;1.60;;;28.70;53.30;;;;;;5089993;28;20068;-74
2021/06/14 13:02:55;;;;;;;3.45;1.65;;;28.50;53.00;;;;;;5071859;28;20034;-73